Time;durP1;ratioP1;P1;durP2;ratioP2;P2;SDS_P1;SDS_P2;PMS_P1;PMS_P2;Temp;Humidity;BMP_temperature;BMP_pressure;BME280_temperature;BME280_humidity;BME280_pressure;Samples;Min_cycle;Max_cycle;Signal;HPM_P1;HPM_P2
2022/01/23 10:57:51;;;;;;;37.93;20.33;;;;;;;-142.02;100.00;61695.09;4961731;28;20073;-74
2022/01/23 11:00:37;;;;;;;26.40;15.85;;;;;;;-142.02;100.00;61695.09;4970093;28;20365;-72
2022/01/23 11:03:20;;;;;;;36.05;20.95;;;;;;;-142.02;100.00;61695.09;4953788;28;20038;-72
2022/01/23 11:05:48;;;;;;;49.83;26.55;;;;;;;-142.02;100.00;61695.09;4952839;28;20091;-72
2022/01/23 11:08:21;;;;;;;25.23;15.77;;;;;;;-142.02;100.00;61695.09;4951732;28;20522;-72
2022/01/23 11:11:06;;;;;;;38.35;20.88;;;;;;;-142.02;100.00;61695.09;4959042;28;20146;-72
2022/01/23 11:19:24;;;;;;;44.65;25.42;;;;;;;-142.02;100.00;61695.09;4975388;28;20054;-73
2022/01/23 11:21:52;;;;;;;45.22;25.92;;;;;;;-142.02;100.00;61695.09;4975879;28;20051;-73
2022/01/23 11:24:19;;;;;;;42.80;22.30;;;;;;;-142.02;100.00;61695.09;4971580;28;20210;-72
2022/01/23 11:26:45;;;;;;;42.88;23.67;;;;;;;-142.02;100.00;61695.09;4970204;28;20050;-72
2022/01/23 11:29:18;;;;;;;45.35;22.10;;;;;;;-142.02;100.00;61695.09;4938423;28;20197;-75
2022/01/23 11:31:44;;;;;;;41.88;22.48;;;;;;;-142.02;100.00;61695.09;4968872;28;20035;-72
2022/01/23 11:34:16;;;;;;;35.03;18.65;;;;;;;-142.02;100.00;61695.09;4974597;28;20046;-72
2022/01/23 11:36:42;;;;;;;36.17;20.08;;;;;;;-142.02;100.00;61695.09;4957450;28;20054;-71
2022/01/23 11:39:15;;;;;;;40.33;19.15;;;;;;;-142.02;100.00;61695.09;4991575;28;20054;-72
2022/01/23 11:53:52;;;;;;;40.63;22.45;;;;;;;-142.02;100.00;61695.09;4972972;28;20054;-72
2022/01/23 11:56:24;;;;;;;29.08;17.88;;;;;;;-142.02;100.00;61695.09;4973049;28;20054;-73
2022/01/23 11:59:15;;;;;;;33.20;17.80;;;;;;;-142.02;100.00;61695.09;4977825;28;20062;-72
2022/01/23 12:01:43;;;;;;;38.20;25.02;;;;;;;-142.02;100.00;61695.09;4922257;28;20066;-72
2022/01/23 12:04:21;;;;;;;38.22;20.23;;;;;;;-142.02;100.00;61695.09;4938653;28;20192;-72
2022/01/23 12:07:14;;;;;;;39.55;24.48;;;;;;;-142.02;100.00;61695.09;4988181;28;20078;-72
2022/01/23 12:09:43;;;;;;;34.25;18.58;;;;;;;-142.02;100.00;61695.09;4976370;28;20065;-72
2022/01/23 12:18:13;;;;;;;35.33;21.27;;;;;;;-142.02;100.00;61695.09;4958521;28;20050;-72
2022/01/23 12:20:42;;;;;;;34.10;21.08;;;;;;;-142.02;100.00;61695.09;4955365;28;20148;-72
2022/01/23 12:23:09;;;;;;;32.63;18.10;;;;;;;-142.02;100.00;61695.09;4972318;28;20634;-72
2022/01/23 12:25:54;;;;;;;47.72;26.35;;;;;;;-142.02;100.00;61695.09;4939470;28;20051;-72
2022/01/23 12:28:32;;;;;;;35.70;17.58;;;;;;;-142.02;100.00;61695.09;4972596;28;20054;-72
2022/01/23 12:31:00;;;;;;;30.70;18.92;;;;;;;-142.02;100.00;61695.09;4972401;28;20088;-72
2022/01/23 12:33:44;;;;;;;42.00;21.23;;;;;;;-142.02;100.00;61695.09;4971443;28;20098;-73
2022/01/23 12:36:14;;;;;;;35.67;22.10;;;;;;;-142.02;100.00;61695.09;4974551;28;20473;-72
2022/01/23 12:38:42;;;;;;;35.65;20.67;;;;;;;-142.02;100.00;61695.09;4974237;28;20050;-72
2022/01/23 12:41:37;;;;;;;39.97;21.20;;;;;;;-142.02;100.00;61695.09;4991494;28;20061;-72
2022/01/23 12:44:23;;;;;;;34.88;19.92;;;;;;;-142.02;100.00;61695.09;4945738;28;20042;-73
2022/01/23 12:46:54;;;;;;;39.92;20.65;;;;;;;-142.02;100.00;61695.09;4977567;28;20120;-73
2022/01/23 12:49:48;;;;;;;41.03;24.25;;;;;;;-142.02;100.00;61695.09;4958571;28;20517;-73
2022/01/23 12:52:21;;;;;;;38.63;18.85;;;;;;;-142.02;100.00;61695.09;4991428;28;20141;-72
2022/01/23 12:54:50;;;;;;;30.92;17.42;;;;;;;-142.02;100.00;61695.09;4958721;28;20065;-72
2022/01/23 13:53:48;;;;;;;41.45;24.30;;;;;;;-142.02;100.00;61695.09;4956694;28;20050;-72
2022/01/23 13:59:20;;;;;;;38.85;21.13;;;;;;;-142.02;100.00;61695.09;4971924;28;20062;-72
2022/01/23 14:04:19;;;;;;;32.45;19.27;;;;;;;-142.02;100.00;61695.09;4991486;28;20133;-72
2022/01/23 14:06:46;;;;;;;41.88;23.73;;;;;;;-142.02;100.00;61695.09;4994060;28;20050;-72
2022/01/23 14:09:13;;;;;;;32.72;18.60;;;;;;;-142.02;100.00;61695.09;4950876;28;20089;-72
2022/01/23 14:11:39;;;;;;;29.42;16.73;;;;;;;-142.02;100.00;61695.09;4977398;28;20125;-71
2022/01/23 14:14:32;;;;;;;33.58;18.95;;;;;;;-142.02;100.00;61695.09;4952240;28;20047;-72
2022/01/23 14:17:17;;;;;;;31.42;16.88;;;;;;;-142.02;100.00;61695.09;4958307;28;20050;-71
2022/01/23 14:19:58;;;;;;;36.22;19.33;;;;;;;-142.02;100.00;61695.09;4990050;28;20050;-72
2022/01/23 14:22:32;;;;;;;32.38;15.93;;;;;;;-142.02;100.00;61695.09;4990105;28;20061;-72
2022/01/23 14:25:16;;;;;;;29.20;16.08;;;;;;;-142.02;100.00;61695.09;4956734;28;20058;-72
2022/01/23 14:27:44;;;;;;;29.52;15.05;;;;;;;-142.02;100.00;61695.09;4989921;28;20086;-72
2022/01/23 14:30:14;;;;;;;32.38;15.95;;;;;;;-142.02;100.00;61695.09;4989166;28;20514;-72
2022/01/23 14:32:49;;;;;;;24.92;15.77;;;;;;;-142.02;100.00;61695.09;4977904;28;20042;-72
2022/01/23 14:35:27;;;;;;;34.38;18.60;;;;;;;-142.02;100.00;61695.09;4958632;28;20086;-72
2022/01/23 14:37:53;;;;;;;31.70;18.10;;;;;;;-142.02;100.00;61695.09;4934316;29;20053;-72
2022/01/23 14:40:24;;;;;;;31.35;16.83;;;;;;;-142.02;100.00;61695.09;4951425;29;20051;-72
2022/01/23 14:43:16;;;;;;;37.15;17.67;;;;;;;-142.02;100.00;61695.09;4956544;28;20039;-72
2022/01/23 14:45:44;;;;;;;38.38;19.48;;;;;;;-142.02;100.00;61695.09;4950582;28;20546;-76
2022/01/23 14:48:11;;;;;;;31.65;17.20;;;;;;;-142.02;100.00;61695.09;4970447;28;20105;-72
2022/01/23 14:50:39;;;;;;;35.67;19.05;;;;;;;-142.02;100.00;61695.09;4987730;28;20051;-73
2022/01/23 14:53:25;;;;;;;31.63;16.75;;;;;;;-142.02;100.00;61695.09;4981438;28;20217;-72
2022/01/23 14:55:56;;;;;;;33.90;16.58;;;;;;;-142.02;100.00;61695.09;4976254;28;20052;-72
2022/01/23 14:58:22;;;;;;;28.85;17.42;;;;;;;-142.02;100.00;61695.09;4962943;28;20053;-72
2022/01/23 15:00:50;;;;;;;35.03;19.67;;;;;;;-142.02;100.00;61695.09;4978445;28;20047;-72
2022/01/23 15:03:16;;;;;;;28.15;16.50;;;;;;;-142.02;100.00;61695.09;4979692;28;20042;-73
2022/01/23 15:05:42;;;;;;;31.83;18.20;;;;;;;-142.02;100.00;61695.09;4977440;28;20049;-72
2022/01/23 15:08:09;;;;;;;35.65;19.38;;;;;;;-142.02;100.00;61695.09;4951472;28;20050;-71
2022/01/23 15:10:36;;;;;;;37.90;19.00;;;;;;;-142.02;100.00;61695.09;4973652;28;20506;-72
2022/01/23 15:13:03;;;;;;;38.38;18.42;;;;;;;-142.02;100.00;61695.09;4952129;28;20081;-71
2022/01/23 15:15:29;;;;;;;46.78;19.70;;;;;;;-142.02;100.00;61695.09;4962011;28;20057;-72
2022/01/23 15:17:55;;;;;;;50.60;23.20;;;;;;;-142.02;100.00;61695.09;4960025;28;20511;-72
2022/01/23 15:20:24;;;;;;;41.92;20.38;;;;;;;-142.02;100.00;61695.09;4953514;28;20068;-72
2022/01/23 15:22:50;;;;;;;37.60;19.58;;;;;;;-142.02;100.00;61695.09;4945826;28;20152;-72
2022/01/23 15:25:18;;;;;;;35.30;19.38;;;;;;;-142.02;100.00;61695.09;4960917;28;20976;-71
2022/01/23 15:27:45;;;;;;;37.50;20.05;;;;;;;-142.02;100.00;61695.09;4963214;28;20047;-72
2022/01/23 15:30:12;;;;;;;36.75;21.05;;;;;;;-142.02;100.00;61695.09;4960386;28;20047;-71
2022/01/23 15:32:38;;;;;;;35.55;18.77;;;;;;;-142.02;100.00;61695.09;4959913;28;20177;-72
2022/01/23 15:35:06;;;;;;;34.42;18.73;;;;;;;-142.02;100.00;61695.09;4962464;28;20422;-72
2022/01/23 15:37:32;;;;;;;38.13;17.98;;;;;;;-142.02;100.00;61695.09;4958374;28;20047;-72
2022/01/23 15:39:59;;;;;;;14.90;9.38;;;;;;;-142.02;100.00;61695.09;4960757;28;20114;-71
2022/01/23 15:42:26;;;;;;;39.45;18.65;;;;;;;-142.02;100.00;61695.09;4945739;28;20116;-70
2022/01/23 15:44:52;;;;;;;39.55;21.52;;;;;;;-142.02;100.00;61695.09;4964658;28;20074;-71
2022/01/23 15:47:18;;;;;;;36.78;20.52;;;;;;;-142.02;100.00;61695.09;4961681;28;20081;-71
2022/01/23 15:49:44;;;;;;;42.70;22.27;;;;;;;-142.02;100.00;61695.09;4969551;28;20146;-71
2022/01/23 15:52:12;;;;;;;38.30;20.50;;;;;;;-142.02;100.00;61695.09;4958605;28;20057;-71
2022/01/23 15:54:38;;;;;;;42.80;21.23;;;;;;;-142.02;100.00;61695.09;4964303;28;20046;-71
2022/01/23 15:57:04;;;;;;;35.63;19.50;;;;;;;-142.02;100.00;61695.09;4960457;28;20062;-71
2022/01/23 15:59:31;;;;;;;37.20;19.23;;;;;;;-142.02;100.00;61695.09;4959193;28;20055;-70
2022/01/23 16:01:57;;;;;;;38.40;19.38;;;;;;;-142.02;100.00;61695.09;4964233;28;20051;-70
2022/01/23 16:04:23;;;;;;;31.90;18.13;;;;;;;-142.02;100.00;61695.09;4944132;28;20124;-71
2022/01/23 16:06:50;;;;;;;35.58;19.00;;;;;;;-142.02;100.00;61695.09;4958448;28;20057;-70
2022/01/23 16:09:16;;;;;;;37.55;18.23;;;;;;;-142.02;100.00;61695.09;4943987;28;20110;-70
2022/01/23 16:11:42;;;;;;;39.97;20.35;;;;;;;-142.02;100.00;61695.09;4958819;28;20579;-70
2022/01/23 16:14:08;;;;;;;41.28;18.30;;;;;;;-142.02;100.00;61695.09;4959181;28;20050;-71
2022/01/23 16:16:35;;;;;;;36.88;18.85;;;;;;;-142.02;100.00;61695.09;4958065;28;20141;-71
2022/01/23 16:19:02;;;;;;;32.10;18.00;;;;;;;-142.02;100.00;61695.09;4941258;28;20043;-71
2022/01/23 16:21:28;;;;;;;35.88;18.50;;;;;;;-142.02;100.00;61695.09;4959972;28;20044;-71
2022/01/23 16:23:54;;;;;;;33.13;17.83;;;;;;;-142.02;100.00;61695.09;4940793;28;20065;-71
2022/01/23 16:26:20;;;;;;;40.05;20.10;;;;;;;-142.02;100.00;61695.09;4962664;28;20418;-72
2022/01/23 16:28:47;;;;;;;46.95;19.38;;;;;;;-142.02;100.00;61695.09;4943882;28;20051;-72
2022/01/23 16:31:13;;;;;;;34.38;16.90;;;;;;;-142.02;100.00;61695.09;4962755;28;20043;-72
2022/01/23 16:33:39;;;;;;;38.42;19.92;;;;;;;-142.02;100.00;61695.09;4943457;28;20043;-72
2022/01/23 16:36:06;;;;;;;50.78;24.40;;;;;;;-142.02;100.00;61695.09;4938129;28;20046;-69
2022/01/23 16:38:33;;;;;;;44.05;21.40;;;;;;;-142.02;100.00;61695.09;4940061;28;20094;-71
2022/01/23 16:40:59;;;;;;;45.03;20.55;;;;;;;-142.02;100.00;61695.09;4960220;28;20051;-72
2022/01/23 16:43:27;;;;;;;38.67;20.20;;;;;;;-142.02;100.00;61695.09;4966172;28;20061;-72
2022/01/23 16:45:57;;;;;;;43.38;23.00;;;;;;;-142.02;100.00;61695.09;4945310;28;20448;-71
2022/01/23 16:48:26;;;;;;;40.67;21.85;;;;;;;-142.02;100.00;61695.09;4929562;28;20061;-72
2022/01/23 16:50:52;;;;;;;42.90;19.60;;;;;;;-142.02;100.00;61695.09;4959806;28;20054;-73
2022/01/23 16:53:18;;;;;;;44.53;21.67;;;;;;;-142.02;100.00;61695.09;4946723;28;20169;-71
2022/01/23 16:55:44;;;;;;;41.55;20.95;;;;;;;-142.02;100.00;61695.09;4962824;28;20074;-73
2022/01/23 16:58:10;;;;;;;36.65;19.67;;;;;;;-142.02;100.00;61695.09;4945553;28;20058;-72
2022/01/23 17:00:36;;;;;;;36.88;20.73;;;;;;;-142.02;100.00;61695.09;4969811;28;20045;-72
2022/01/23 17:03:04;;;;;;;56.85;24.73;;;;;;;-142.02;100.00;61695.09;4949228;28;20105;-71
2022/01/23 17:05:30;;;;;;;44.00;24.00;;;;;;;-142.02;100.00;61695.09;4966089;28;20157;-71
2022/01/23 17:07:56;;;;;;;45.38;22.90;;;;;;;-142.02;100.00;61695.09;4982201;28;20053;-72
2022/01/23 17:10:23;;;;;;;51.30;25.73;;;;;;;-142.02;100.00;61695.09;4948755;28;20055;-72
2022/01/23 17:12:55;;;;;;;42.65;23.02;;;;;;;-142.02;100.00;61695.09;4942503;28;20050;-72
2022/01/23 17:15:22;;;;;;;50.80;25.75;;;;;;;-142.02;100.00;61695.09;4947594;28;20050;-72
2022/01/23 17:17:48;;;;;;;49.67;24.30;;;;;;;-142.02;100.00;61695.09;4934809;28;20138;-72
2022/01/23 17:20:14;;;;;;;42.65;24.20;;;;;;;-142.02;100.00;61695.09;4962802;28;20054;-72
2022/01/23 17:22:40;;;;;;;44.65;24.42;;;;;;;-142.02;100.00;61695.09;4946094;28;20087;-71
2022/01/23 17:25:07;;;;;;;44.30;24.88;;;;;;;-142.02;100.00;61695.09;4964021;28;20620;-71
2022/01/23 17:27:33;;;;;;;47.95;27.10;;;;;;;-142.02;100.00;61695.09;4969595;28;20047;-71
2022/01/23 17:30:01;;;;;;;47.95;25.55;;;;;;;-142.02;100.00;61695.09;4953783;28;20051;-71
2022/01/23 17:32:29;;;;;;;47.53;25.70;;;;;;;-142.02;100.00;61695.09;4969117;28;20068;-71
2022/01/23 17:34:55;;;;;;;46.40;24.48;;;;;;;-142.02;100.00;61695.09;4967580;28;20462;-71
2022/01/23 17:37:21;;;;;;;44.17;24.05;;;;;;;-142.02;100.00;61695.09;4969287;28;20050;-71
2022/01/23 17:39:50;;;;;;;41.25;22.60;;;;;;;-142.02;100.00;61695.09;4966726;28;20161;-71
2022/01/23 17:42:18;;;;;;;47.35;27.08;;;;;;;-142.02;100.00;61695.09;4966586;28;20054;-72
2022/01/23 17:44:49;;;;;;;49.25;25.98;;;;;;;-142.02;100.00;61695.09;4958185;28;20519;-71
2022/01/23 17:47:22;;;;;;;42.78;24.55;;;;;;;-142.02;100.00;61695.09;4971708;28;20050;-71
2022/01/23 17:49:57;;;;;;;46.97;25.70;;;;;;;-142.02;100.00;61695.09;4969563;28;20065;-70
2022/01/23 17:52:23;;;;;;;43.72;22.85;;;;;;;-142.02;100.00;61695.09;4971393;28;20146;-71
2022/01/23 17:54:52;;;;;;;50.85;26.45;;;;;;;-142.02;100.00;61695.09;4984600;28;20054;-71
2022/01/23 17:57:18;;;;;;;40.05;20.17;;;;;;;-142.02;100.00;61695.09;4956884;28;20178;-70
2022/01/23 17:59:44;;;;;;;40.75;22.52;;;;;;;-142.02;100.00;61695.09;4935231;28;20090;-72
2022/01/23 18:02:13;;;;;;;45.78;24.58;;;;;;;-142.02;100.00;61695.09;4923247;28;20043;-71
2022/01/23 18:04:39;;;;;;;44.45;22.58;;;;;;;-142.02;100.00;61695.09;4954234;28;20047;-71
2022/01/23 18:07:08;;;;;;;48.22;26.17;;;;;;;-142.02;100.00;61695.09;4957197;28;20138;-71
2022/01/23 18:09:34;;;;;;;48.22;26.55;;;;;;;-142.02;100.00;61695.09;4964404;28;20054;-71
2022/01/23 18:12:00;;;;;;;49.13;23.55;;;;;;;-142.02;100.00;61695.09;4964958;28;20129;-71
2022/01/23 18:14:29;;;;;;;46.60;25.08;;;;;;;-142.02;100.00;61695.09;4958899;28;20058;-71
2022/01/23 18:16:56;;;;;;;44.92;23.70;;;;;;;-142.02;100.00;61695.09;4940670;28;20514;-71
2022/01/23 18:19:22;;;;;;;45.08;23.95;;;;;;;-142.02;100.00;61695.09;4959480;28;20066;-71
2022/01/23 18:21:48;;;;;;;54.05;26.00;;;;;;;-142.02;100.00;61695.09;4966514;28;20089;-71
2022/01/23 18:24:14;;;;;;;43.80;23.85;;;;;;;-142.02;100.00;61695.09;4957686;28;20051;-71
2022/01/23 18:26:42;;;;;;;44.67;23.73;;;;;;;-142.02;100.00;61695.09;4939624;28;20086;-72
2022/01/23 18:29:09;;;;;;;41.83;23.40;;;;;;;-142.02;100.00;61695.09;4957273;28;20047;-71
2022/01/23 18:31:35;;;;;;;45.47;21.95;;;;;;;-142.02;100.00;61695.09;4957365;28;20063;-71
2022/01/23 18:34:02;;;;;;;43.50;22.25;;;;;;;-142.02;100.00;61695.09;4914715;28;20093;-71
2022/01/23 18:36:31;;;;;;;36.17;18.80;;;;;;;-142.02;100.00;61695.09;4959475;28;20086;-71
2022/01/23 18:38:58;;;;;;;46.65;25.25;;;;;;;-142.02;100.00;61695.09;4962078;28;20121;-71
2022/01/23 18:41:24;;;;;;;49.28;27.13;;;;;;;-142.02;100.00;61695.09;4941154;28;20063;-71
2022/01/23 18:43:50;;;;;;;51.22;24.88;;;;;;;-142.02;100.00;61695.09;4958732;28;20137;-71
2022/01/23 18:46:16;;;;;;;46.92;24.85;;;;;;;-142.02;100.00;61695.09;4955029;28;20051;-71
2022/01/23 18:48:43;;;;;;;50.17;26.70;;;;;;;-142.02;100.00;61695.09;4961184;28;20083;-71
2022/01/23 18:51:09;;;;;;;50.83;26.42;;;;;;;-142.02;100.00;61695.09;4946597;28;20046;-72
2022/01/23 18:53:44;;;;;;;53.67;27.15;;;;;;;-142.02;100.00;61695.09;4949546;28;20126;-72
2022/01/23 18:56:19;;;;;;;46.63;23.38;;;;;;;-142.02;100.00;61695.09;4968966;28;20221;-72
2022/01/23 18:58:53;;;;;;;47.70;25.00;;;;;;;-142.02;100.00;61695.09;4941333;28;20042;-72
2022/01/23 19:01:20;;;;;;;46.08;23.73;;;;;;;-142.02;100.00;61695.09;4969014;28;20051;-71
2022/01/23 19:08:58;;;;;;;;;;;;;;;-142.02;100.00;61695.09;4964861;28;20455;-70
2022/01/23 19:11:29;;;;;;;50.08;24.40;;;;;;;-142.02;100.00;61695.09;4974480;28;19977;-69
2022/01/23 19:13:57;;;;;;;52.17;28.08;;;;;;;-142.02;100.00;61695.09;4953696;28;20085;-70
2022/01/23 19:16:23;;;;;;;51.55;27.83;;;;;;;-142.02;100.00;61695.09;4951156;28;20137;-70
2022/01/23 19:18:49;;;;;;;53.88;27.48;;;;;;;-142.02;100.00;61695.09;4969963;28;20106;-70
2022/01/23 19:21:15;;;;;;;51.45;27.25;;;;;;;-142.02;100.00;61695.09;4965453;28;20043;-71
2022/01/23 19:23:43;;;;;;;52.60;27.58;;;;;;;-142.02;100.00;61695.09;4963924;28;20047;-70
2022/01/23 19:26:09;;;;;;;54.10;27.52;;;;;;;-142.02;100.00;61695.09;4975717;28;20086;-70
2022/01/23 19:28:36;;;;;;;47.00;24.05;;;;;;;-142.02;100.00;61695.09;4941974;28;20055;-71
2022/01/23 19:31:05;;;;;;;48.92;23.58;;;;;;;-142.02;100.00;61695.09;4961347;28;20083;-71
2022/01/23 19:33:31;;;;;;;57.13;27.88;;;;;;;-142.02;100.00;61695.09;4970799;28;20550;-71
2022/01/23 19:35:58;;;;;;;51.45;25.02;;;;;;;-142.02;100.00;61695.09;4963682;28;20043;-71
2022/01/23 19:38:26;;;;;;;54.35;28.95;;;;;;;-142.02;100.00;61695.09;4948037;28;20051;-70
2022/01/23 19:41:06;;;;;;;52.67;27.17;;;;;;;-142.02;100.00;61695.09;4963401;28;20046;-70
2022/01/23 19:46:38;;;;;;;55.58;26.98;;;;;;;-142.02;100.00;61695.09;4961082;28;20138;-71
2022/01/23 19:49:03;;;;;;;53.97;26.58;;;;;;;-142.02;100.00;61695.09;4958039;28;20411;-71
2022/01/23 19:51:30;;;;;;;54.13;26.35;;;;;;;-142.02;100.00;61695.09;4963414;28;20070;-71
2022/01/23 19:53:56;;;;;;;47.67;25.63;;;;;;;-142.02;100.00;61695.09;4958903;28;20531;-70
2022/01/23 19:56:22;;;;;;;50.75;25.88;;;;;;;-142.02;100.00;61695.09;4943291;28;20058;-71
2022/01/23 19:58:49;;;;;;;49.38;25.10;;;;;;;-142.02;100.00;61695.09;4958572;28;20523;-71
2022/01/23 20:01:17;;;;;;;49.58;25.65;;;;;;;-142.02;100.00;61695.09;4961965;28;20049;-70
2022/01/23 20:03:43;;;;;;;48.20;23.58;;;;;;;-142.02;100.00;61695.09;4946943;28;20054;-72
2022/01/23 20:06:13;;;;;;;44.60;24.17;;;;;;;-142.02;100.00;61695.09;4967842;28;20430;-72
2022/01/23 20:08:41;;;;;;;47.60;26.45;;;;;;;-142.02;100.00;61695.09;4969716;28;20137;-73
2022/01/23 20:14:01;;;;;;;54.05;26.83;;;;;;;-142.02;100.00;61695.09;4955029;28;20082;-73
2022/01/23 20:16:29;;;;;;;44.47;24.65;;;;;;;-142.02;100.00;61695.09;4970509;28;20133;-73
2022/01/23 20:19:00;;;;;;;53.28;28.67;;;;;;;-142.02;100.00;61695.09;4954072;28;20043;-72
2022/01/23 20:21:26;;;;;;;54.35;27.77;;;;;;;-142.02;100.00;61695.09;4929650;28;20426;-72
2022/01/23 20:23:56;;;;;;;55.42;29.90;;;;;;;-142.02;100.00;61695.09;4939246;28;20521;-72
2022/01/23 20:26:24;;;;;;;54.20;26.60;;;;;;;-142.02;100.00;61695.09;4939084;28;20534;-72
2022/01/23 20:28:50;;;;;;;59.65;29.90;;;;;;;-142.02;100.00;61695.09;4971041;28;20055;-73
2022/01/23 20:31:16;;;;;;;61.15;32.28;;;;;;;-142.02;100.00;61695.09;4971453;28;20050;-74
2022/01/23 20:33:44;;;;;;;56.58;27.05;;;;;;;-142.02;100.00;61695.09;4955201;28;20062;-72
2022/01/23 20:36:11;;;;;;;58.45;28.00;;;;;;;-142.02;100.00;61695.09;4973073;28;20042;-72
2022/01/23 20:38:42;;;;;;;63.85;29.55;;;;;;;-142.02;100.00;61695.09;4972829;28;20082;-73
2022/01/23 20:41:23;;;;;;;;;;;;;;;-142.02;100.00;61695.09;4972876;28;20039;-72
2022/01/23 20:43:53;;;;;;;71.35;32.92;;;;;;;-142.02;100.00;61695.09;4955071;28;19957;-72
2022/01/23 20:46:19;;;;;;;57.20;27.95;;;;;;;-142.02;100.00;61695.09;4954635;28;20525;-73
2022/01/23 20:48:45;;;;;;;67.10;32.85;;;;;;;-142.02;100.00;61695.09;4954571;28;20051;-72
2022/01/23 20:51:14;;;;;;;79.38;38.47;;;;;;;-142.02;100.00;61695.09;4954860;28;20693;-72
2022/01/23 20:56:16;;;;;;;63.70;30.55;;;;;;;-142.02;100.00;61695.09;4971856;28;20051;-73
2022/01/23 20:58:42;;;;;;;65.05;31.40;;;;;;;-142.02;100.00;61695.09;4954691;28;20042;-73
2022/01/23 21:01:12;;;;;;;43.88;21.23;;;;;;;-142.02;100.00;61695.09;4938768;28;20067;-73
2022/01/23 21:03:48;;;;;;;78.95;33.10;;;;;;;-142.02;100.00;61695.09;4971662;28;20507;-72
2022/01/23 21:06:24;;;;;;;67.80;28.70;;;;;;;-142.02;100.00;61695.09;4971761;28;20201;-73
2022/01/23 21:08:51;;;;;;;63.65;28.67;;;;;;;-142.02;100.00;61695.09;4971745;28;20061;-73
2022/01/23 21:11:22;;;;;;;60.50;28.67;;;;;;;-142.02;100.00;61695.09;4954160;28;20446;-73
2022/01/23 21:18:59;;;;;;;65.50;26.98;;;;;;;-142.02;100.00;61695.09;4986450;28;20047;-72
2022/01/23 21:30:59;;;;;;;52.90;22.90;;;;;;;-142.02;100.00;61695.09;4971046;28;20090;-73
2022/01/23 21:33:01;;;;;;;35.17;19.13;;;;;;;-142.02;100.00;61695.09;4961487;28;20129;-72
2022/01/23 21:41:07;;;;;;;48.88;20.63;;;;;;;-142.02;100.00;61695.09;4928163;28;20109;-72
2022/01/23 21:43:33;;;;;;;49.83;22.42;;;;;;;-142.02;100.00;61695.09;4970637;28;20427;-73
2022/01/23 21:45:59;;;;;;;48.83;22.48;;;;;;;-142.02;100.00;61695.09;4937960;28;20047;-72
2022/01/23 21:48:27;;;;;;;43.97;21.10;;;;;;;-142.02;100.00;61695.09;4953752;28;20086;-73
2022/01/23 21:50:53;;;;;;;29.17;17.48;;;;;;;-142.02;100.00;61695.09;4922357;28;20056;-73
2022/01/23 21:53:22;;;;;;;48.33;21.20;;;;;;;-142.02;100.00;61695.09;4970877;28;20090;-73
2022/01/23 21:55:48;;;;;;;84.45;31.80;;;;;;;-142.02;100.00;61695.09;4956127;28;20133;-72
2022/01/23 21:58:14;;;;;;;77.53;31.63;;;;;;;-142.02;100.00;61695.09;4938247;28;20145;-72
2022/01/23 22:00:40;;;;;;;50.83;22.23;;;;;;;-142.02;100.00;61695.09;4970941;28;20078;-72
2022/01/23 22:03:06;;;;;;;55.45;25.95;;;;;;;-142.02;100.00;61695.09;4959418;28;20434;-71
2022/01/23 22:05:32;;;;;;;55.88;26.17;;;;;;;-142.02;100.00;61695.09;4985053;28;20062;-73
2022/01/23 22:07:59;;;;;;;44.10;21.70;;;;;;;-142.02;100.00;61695.09;4953468;28;20054;-73
2022/01/23 22:10:31;;;;;;;52.53;23.00;;;;;;;-142.02;100.00;61695.09;4954680;28;20082;-72
2022/01/23 22:13:13;;;;;;;51.65;21.88;;;;;;;-142.02;100.00;61695.09;4960410;28;20054;-71
2022/01/23 22:15:59;;;;;;;;;;;;;;;-7.46;99.20;101818.91;4982476;28;20069;-73
2022/01/23 22:18:30;;;;;;;58.15;22.95;;;;;;;-142.02;100.00;61695.09;4970726;28;19922;-72
2022/01/23 22:20:58;;;;;;;;;;;;;;;-142.02;100.00;61695.09;4938080;28;20054;-72
2022/01/23 22:28:43;;;;;;;41.47;21.25;;;;;;;-142.02;100.00;61695.09;4970307;28;20472;-72
2022/01/23 22:31:09;;;;;;;56.53;24.77;;;;;;;-142.02;100.00;61695.09;4953420;28;20054;-72
2022/01/23 22:33:35;;;;;;;61.85;23.92;;;;;;;-142.02;100.00;61695.09;4952958;28;20051;-71
2022/01/23 22:36:02;;;;;;;69.10;29.33;;;;;;;-142.02;100.00;61695.09;4974062;28;20046;-72
2022/01/23 22:38:32;;;;;;;60.25;27.42;;;;;;;-142.02;100.00;61695.09;4964459;28;20055;-72
2022/01/23 22:40:59;;;;;;;59.92;26.60;;;;;;;-142.02;100.00;61695.09;4938235;29;20075;-73
2022/01/23 22:43:27;;;;;;;49.85;21.98;;;;;;;-142.02;100.00;61695.09;4954842;28;20051;-72
2022/01/23 22:48:45;;;;;;;45.58;21.10;;;;;;;-8.14;99.21;101819.66;4954415;28;20074;-72
2022/01/23 22:51:11;;;;;;;49.30;20.70;;;;;;;-8.36;99.33;101826.97;4955089;29;20055;-72
2022/01/23 22:53:37;;;;;;;31.40;16.88;;;;;;;-8.48;99.06;101828.06;4953334;29;20462;-72
2022/01/23 22:56:04;;;;;;;52.88;20.42;;;;;;;-8.46;98.71;101826.47;4954856;29;20047;-73
2022/01/23 22:58:31;;;;;;;45.13;21.15;;;;;;;-8.41;98.85;101830.94;4954295;28;20051;-72
2022/01/23 23:00:58;;;;;;;57.88;23.38;;;;;;;-8.33;98.73;101833.06;4956680;28;20050;-72
2022/01/23 23:03:24;;;;;;;65.72;25.75;;;;;;;-142.02;100.00;61695.09;4956692;28;20051;-72
2022/01/23 23:05:50;;;;;;;57.33;24.17;;;;;;;-142.02;100.00;61695.09;4973949;28;20570;-72
2022/01/23 23:08:16;;;;;;;45.97;21.10;;;;;;;-8.22;99.06;101841.19;4973896;28;20141;-71
2022/01/23 23:10:42;;;;;;;87.38;33.70;;;;;;;-142.02;100.00;61695.09;4973977;28;20055;-73
2022/01/23 23:13:11;;;;;;;79.00;31.38;;;;;;;-142.02;100.00;61695.09;4973818;28;20054;-73
2022/01/23 23:15:42;;;;;;;75.32;28.15;;;;;;;-142.02;100.00;61695.09;4956323;28;20050;-72
2022/01/23 23:18:10;;;;;;;48.28;20.58;;;;;;;-7.90;99.92;101864.00;4973860;28;20051;-72
2022/01/23 23:20:40;;;;;;;45.28;19.85;;;;;;;-142.02;100.00;61695.09;4956712;28;20051;-73
2022/01/23 23:23:10;;;;;;;57.83;22.73;;;;;;;-142.02;100.00;61695.09;4973601;28;20073;-72
2022/01/23 23:25:36;;;;;;;61.33;24.92;;;;;;;-142.02;100.00;61695.09;4973357;28;20054;-72
2022/01/23 23:28:03;;;;;;;69.07;25.77;;;;;;;-142.02;100.00;61695.09;4956096;28;20605;-71
2022/01/23 23:30:29;;;;;;;77.20;34.00;;;;;;;-142.02;100.00;61695.09;4974895;28;20149;-72
2022/01/23 23:32:55;;;;;;;72.30;31.17;;;;;;;-142.02;100.00;61695.09;4926685;28;20582;-72
2022/01/23 23:35:21;;;;;;;42.35;19.88;;;;;;;-142.02;100.00;61695.09;4941930;28;20101;-71
2022/01/23 23:37:47;;;;;;;60.83;28.73;;;;;;;-142.02;100.00;61695.09;4973910;28;20046;-72
2022/01/23 23:40:20;;;;;;;43.00;21.63;;;;;;;-142.02;100.00;61695.09;4956668;28;20094;-71
2022/01/23 23:45:28;;;;;;;38.85;19.13;;;;;;;-142.02;100.00;61695.09;4957768;28;20054;-71
2022/01/23 23:47:54;;;;;;;35.08;18.10;;;;;;;-142.02;100.00;61695.09;4940218;28;20047;-72
2022/01/23 23:50:20;;;;;;;65.22;30.35;;;;;;;-142.02;100.00;61695.09;4956124;28;20058;-74
2022/01/23 23:52:50;;;;;;;57.50;23.40;;;;;;;-142.02;100.00;61695.09;4975890;28;20554;-72
2022/01/23 23:55:16;;;;;;;57.30;26.80;;;;;;;-142.02;100.00;61695.09;4956676;28;20054;-72
2022/01/23 23:57:46;;;;;;;39.00;21.45;;;;;;;-142.02;100.00;61695.09;4955711;28;20058;-72
